Time;durP1;ratioP1;P1;durP2;ratioP2;P2;SDS_P1;SDS_P2;PMS_P1;PMS_P2;Temp;Humidity;BMP_temperature;BMP_pressure;BME280_temperature;BME280_humidity;BME280_pressure;Samples;Min_cycle;Max_cycle;Signal;HPM_P1;HPM_P2
2022/08/12 00:44:43;;;;;;;4.93;1.80;;;;;;;;;;5023602;28;20092;-84
2022/08/12 00:47:11;;;;;;;3.22;1.60;;;;;;;;;;4990294;28;20037;-84
2022/08/12 00:49:37;;;;;;;3.95;1.77;;;;;;;;;;4991468;28;20453;-83
2022/08/12 00:52:08;;;;;;;3.47;1.50;;;;;;;;;;4991382;28;20061;-84
2022/08/12 00:54:36;;;;;;;3.60;1.80;;;;;;;;;;5005863;28;20071;-84
2022/08/12 00:57:05;;;;;;;3.72;1.65;;;;;;;;;;5006785;28;20574;-83
2022/08/12 00:59:32;;;;;;;5.55;1.90;;;;;;;;;;5006888;28;20139;-85
2022/08/12 01:02:00;;;;;;;3.83;1.67;;;;;;;;;;4991135;28;20087;-84
2022/08/12 01:12:40;;;;;;;5.40;1.90;;;;;;;;;;5010262;28;20041;-84
2022/08/12 01:15:06;;;;;;;4.97;1.63;;;;;;;;;;4990980;28;20088;-84
2022/08/12 01:17:32;;;;;;;3.42;1.60;;;;;;;;;;4992108;28;20037;-83
2022/08/12 01:20:06;;;;;;;4.32;1.60;;;;;;;;;;4991737;28;20029;-84
2022/08/12 01:22:51;;;;;;;4.40;1.60;;;;;;;;;;4980507;28;20044;-84
2022/08/12 01:25:17;;;;;;;4.78;1.83;;;;;;;;;;4988525;28;20488;-84
2022/08/12 01:27:43;;;;;;;3.92;2.05;;;;;;;;;;4988604;28;20099;-83
2022/08/12 01:30:12;;;;;;;3.88;1.70;;;;;;;;;;5000638;28;20034;-84
2022/08/12 01:32:39;;;;;;;3.50;1.55;;;;;;;;;;5007582;28;20033;-83
2022/08/12 01:35:05;;;;;;;;;;;;;;;;;;5006769;28;20037;-84
2022/08/12 01:37:35;;;;;;;3.13;1.65;;;;;;;;;;5023438;28;20388;-83
2022/08/12 01:40:02;;;;;;;4.40;1.50;;;;;;;;;;5031524;28;20041;-83
2022/08/12 01:42:32;;;;;;;2.90;1.63;;;;;;;;;;5006283;28;20556;-83
2022/08/12 01:44:59;;;;;;;5.00;1.77;;;;;;;;;;5023954;28;20152;-83
2022/08/12 01:47:30;;;;;;;3.70;1.75;;;;;;;;;;4991597;28;20026;-83
2022/08/12 01:50:15;;;;;;;6.63;1.63;;;;;;;;;;5018094;28;20046;-83
2022/08/12 01:52:49;;;;;;;3.17;1.63;;;;;;;;;;4981126;28;20117;-83
2022/08/12 01:55:19;;;;;;;5.43;1.98;;;;;;;;;;5006860;28;20124;-83
2022/08/12 01:58:05;;;;;;;4.25;1.80;;;;;;;;;;4987379;28;20045;-84
2022/08/12 02:01:05;;;;;;;4.28;1.52;;;;;;;;;;4989959;28;20030;-83
2022/08/12 02:13:02;;;;;;;3.40;1.83;;;;;;;;;;5020552;28;20623;-83
2022/08/12 02:15:31;;;;;;;4.80;1.98;;;;;;;;;;5003410;28;20100;-84
2022/08/12 02:18:21;;;;;;;3.97;1.80;;;;;;;;;;5025863;28;20048;-83
2022/08/12 02:21:04;;;;;;;3.70;2.00;;;;;;;;;;5010497;28;20044;-84
2022/08/12 02:23:30;;;;;;;4.75;2.20;;;;;;;;;;4992039;28;20498;-83
2022/08/12 02:25:58;;;;;;;5.57;1.80;;;;;;;;;;4995113;28;20049;-83
2022/08/12 02:28:23;;;;;;;5.20;2.03;;;;;;;;;;4994225;28;20095;-83
2022/08/12 02:30:49;;;;;;;4.10;2.05;;;;;;;;;;4993985;28;20388;-84
2022/08/12 02:33:15;;;;;;;4.32;1.90;;;;;;;;;;5010479;28;20497;-83
2022/08/12 02:35:41;;;;;;;4.05;1.88;;;;;;;;;;5002349;28;20409;-83
2022/08/12 02:38:09;;;;;;;4.22;1.98;;;;;;;;;;4994797;28;20030;-83
2022/08/12 02:40:41;;;;;;;6.05;2.13;;;;;;;;;;4993940;28;20079;-83
2022/08/12 02:43:26;;;;;;;3.30;1.90;;;;;;;;;;4985189;28;20477;-83
2022/08/12 02:45:55;;;;;;;5.72;2.38;;;;;;;;;;4992408;28;20379;-84
2022/08/12 02:48:26;;;;;;;4.43;1.90;;;;;;;;;;4994633;28;20033;-83
2022/08/12 02:50:56;;;;;;;5.20;2.17;;;;;;;;;;4992740;28;20037;-84
2022/08/12 02:53:22;;;;;;;5.28;2.55;;;;;;;;;;5009229;28;20515;-84
2022/08/12 02:55:47;;;;;;;5.10;2.10;;;;;;;;;;5009751;28;20041;-84
2022/08/12 02:58:13;;;;;;;3.42;1.83;;;;;;;;;;5009931;28;20033;-84
2022/08/12 03:00:39;;;;;;;6.40;2.03;;;;;;;;;;4994683;28;20456;-83
2022/08/12 03:03:07;;;;;;;6.70;2.08;;;;;;;;;;4992656;28;20121;-83
2022/08/12 03:05:35;;;;;;;3.97;1.75;;;;;;;;;;4993790;28;20073;-84
2022/08/12 03:08:03;;;;;;;;;;;;;;;;;;4995599;28;20388;-83
2022/08/12 03:10:30;;;;;;;4.25;1.92;;;;;;;;;;4992973;28;20585;-83
2022/08/12 03:12:56;;;;;;;3.95;2.17;;;;;;;;;;4991531;28;20462;-84
2022/08/12 03:15:23;;;;;;;3.55;1.90;;;;;;;;;;4993123;28;20068;-83
2022/08/12 03:17:50;;;;;;;3.97;2.20;;;;;;;;;;5009627;28;20049;-83
2022/08/12 03:20:19;;;;;;;5.53;2.30;;;;;;;;;;4983720;28;20044;-84
2022/08/12 03:22:45;;;;;;;4.78;2.47;;;;;;;;;;5008651;28;20465;-83
2022/08/12 03:25:26;;;;;;;4.63;2.03;;;;;;;;;;5007802;28;20029;-84
2022/08/12 03:27:56;;;;;;;4.38;2.10;;;;;;;;;;5009146;28;20045;-83
2022/08/12 03:30:26;;;;;;;4.00;2.03;;;;;;;;;;5022034;28;20047;-83
2022/08/12 03:32:54;;;;;;;7.40;2.47;;;;;;;;;;5000323;28;20490;-83
2022/08/12 03:35:25;;;;;;;5.22;2.35;;;;;;;;;;4991247;28;20124;-83
2022/08/12 03:37:51;;;;;;;5.68;1.92;;;;;;;;;;4993893;28;20504;-84
2022/08/12 04:02:18;;;;;;;6.90;2.10;;;;;;;;;;5010831;28;20060;-84
2022/08/12 04:04:44;;;;;;;6.50;2.42;;;;;;;;;;4993542;28;20076;-84
2022/08/12 04:07:11;;;;;;;4.32;2.00;;;;;;;;;;4991377;28;20035;-84
2022/08/12 04:09:42;;;;;;;3.67;2.10;;;;;;;;;;5008183;28;20057;-83
2022/08/12 04:14:56;;;;;;;5.22;2.22;;;;;;;;;;5009519;28;20037;-84
2022/08/12 04:17:22;;;;;;;4.55;2.03;;;;;;;;;;4991986;28;20040;-84
2022/08/12 04:19:47;;;;;;;5.50;2.47;;;;;;;;;;5008207;28;20476;-85
2022/08/12 04:22:13;;;;;;;6.03;2.33;;;;;;;;;;4992293;28;20034;-83
2022/08/12 04:24:39;;;;;;;3.60;2.00;;;;;;;;;;5006178;28;20030;-84
2022/08/12 04:27:07;;;;;;;4.60;2.38;;;;;;;;;;4991486;28;20521;-84
2022/08/12 04:29:33;;;;;;;4.00;1.92;;;;;;;;;;4989934;28;20038;-83
2022/08/12 04:31:59;;;;;;;6.68;1.92;;;;;;;;;;4990998;28;20091;-83
2022/08/12 04:34:24;;;;;;;4.95;2.30;;;;;;;;;;4986415;28;20533;-84
2022/08/12 04:36:50;;;;;;;5.40;2.30;;;;;;;;;;5008251;28;20033;-84
2022/08/12 04:39:16;;;;;;;5.30;2.22;;;;;;;;;;5001604;28;20445;-84
2022/08/12 04:41:42;;;;;;;5.25;2.35;;;;;;;;;;5003390;28;20069;-83
2022/08/12 04:44:11;;;;;;;4.57;2.10;;;;;;;;;;5005404;28;20485;-84
2022/08/12 04:46:36;;;;;;;5.88;2.10;;;;;;;;;;5007885;28;20509;-84
2022/08/12 04:49:02;;;;;;;5.85;2.28;;;;;;;;;;5007195;28;20029;-84
2022/08/12 04:51:28;;;;;;;4.65;2.08;;;;;;;;;;5008128;28;20037;-84
2022/08/12 04:53:56;;;;;;;6.55;2.35;;;;;;;;;;5024219;28;20033;-83
2022/08/12 04:56:22;;;;;;;4.03;1.92;;;;;;;;;;4986244;28;20038;-85
2022/08/12 04:58:47;;;;;;;5.60;2.20;;;;;;;;;;5007492;28;20071;-84
2022/08/12 05:01:13;;;;;;;5.70;2.42;;;;;;;;;;5009761;28;20033;-84
2022/08/12 05:03:38;;;;;;;5.13;2.20;;;;;;;;;;5008086;28;20041;-83
2022/08/12 05:06:05;;;;;;;9.15;2.20;;;;;;;;;;5020868;28;20033;-84
2022/08/12 05:08:31;;;;;;;5.63;2.30;;;;;;;;;;4989894;28;20046;-84
2022/08/12 05:10:57;;;;;;;5.97;2.33;;;;;;;;;;4976666;28;20079;-84
2022/08/12 05:13:27;;;;;;;6.28;2.42;;;;;;;;;;5007594;28;20485;-85
2022/08/12 05:15:55;;;;;;;5.63;2.22;;;;;;;;;;5000348;28;20588;-84
2022/08/12 05:18:21;;;;;;;5.70;2.30;;;;;;;;;;5021289;28;20041;-84
2022/08/12 05:20:47;;;;;;;4.13;2.25;;;;;;;;;;4995505;28;20041;-85
2022/08/12 05:23:20;;;;;;;5.53;2.20;;;;;;;;;;4994020;28;20036;-85
2022/08/12 05:25:47;;;;;;;6.40;2.47;;;;;;;;;;4988152;28;20033;-85
2022/08/12 05:28:13;;;;;;;;;;;;;;;;;;5006015;28;20041;-86
2022/08/12 05:30:41;;;;;;;5.68;2.30;;;;;;;;;;4988981;28;19940;-85
2022/08/12 05:33:07;;;;;;;5.50;2.08;;;;;;;;;;4990300;28;20076;-85
2022/08/12 05:35:41;;;;;;;7.53;2.30;;;;;;;;;;5004278;28;20041;-85
2022/08/12 05:40:55;;;;;;;6.13;2.22;;;;;;;;;;5021483;28;20856;-85
2022/08/12 05:43:20;;;;;;;5.43;2.30;;;;;;;;;;4989876;28;20033;-85
2022/08/12 05:45:46;;;;;;;5.32;2.20;;;;;;;;;;5005866;28;20469;-85
2022/08/12 05:48:12;;;;;;;7.18;2.50;;;;;;;;;;4990063;28;20468;-86
2022/08/12 05:50:39;;;;;;;8.50;2.20;;;;;;;;;;4992970;28;20124;-88
2022/08/12 05:53:05;;;;;;;4.73;2.00;;;;;;;;;;4978963;28;20523;-85
2022/08/12 05:55:31;;;;;;;5.63;1.85;;;;;;;;;;4989171;28;20055;-85
2022/08/12 05:57:57;;;;;;;4.47;1.73;;;;;;;;;;5006513;28;20115;-86
2022/08/12 06:00:27;;;;;;;4.50;2.00;;;;;;;;;;4989179;28;20057;-87
2022/08/12 06:02:55;;;;;;;5.03;1.63;;;;;;;;;;4990217;28;20041;-86
2022/08/12 06:05:22;;;;;;;6.22;1.80;;;;;;;;;;4989920;28;20050;-88
2022/08/12 06:07:48;;;;;;;5.85;1.75;;;;;;;;;;4989786;28;20041;-85
2022/08/12 06:10:15;;;;;;;3.75;1.73;;;;;;;;;;4989494;28;20076;-85
2022/08/12 06:12:41;;;;;;;3.22;1.70;;;;;;;;;;5003932;28;20509;-84
2022/08/12 06:15:06;;;;;;;4.05;1.60;;;;;;;;;;5005059;28;20041;-84
2022/08/12 06:17:32;;;;;;;4.03;1.73;;;;;;;;;;5005442;28;20124;-85
2022/08/12 06:19:58;;;;;;;5.18;1.77;;;;;;;;;;5006196;28;20042;-86
2022/08/12 06:22:25;;;;;;;3.28;1.60;;;;;;;;;;4989712;28;20520;-86
2022/08/12 06:24:54;;;;;;;5.38;1.63;;;;;;;;;;4989320;28;20045;-85
2022/08/12 06:27:20;;;;;;;3.70;1.42;;;;;;;;;;4989209;28;20115;-85
2022/08/12 06:29:46;;;;;;;4.03;1.38;;;;;;;;;;5004616;28;20562;-86
2022/08/12 06:32:12;;;;;;;3.17;1.48;;;;;;;;;;4989175;28;20033;-85
2022/08/12 06:34:37;;;;;;;6.05;1.50;;;;;;;;;;4990299;28;20045;-84
2022/08/12 06:37:03;;;;;;;6.50;1.70;;;;;;;;;;5002377;28;20037;-85
2022/08/12 06:39:28;;;;;;;3.33;1.35;;;;;;;;;;4989417;28;20034;-85
2022/08/12 06:44:38;;;;;;;5.32;1.45;;;;;;;;;;5003451;28;20065;-85
2022/08/12 06:47:04;;;;;;;4.40;1.52;;;;;;;;;;4983411;28;20533;-86
2022/08/12 06:49:33;;;;;;;3.60;1.33;;;;;;;;;;4988883;28;20530;-85
2022/08/12 06:51:59;;;;;;;3.88;1.15;;;;;;;;;;5015856;28;20025;-85
2022/08/12 06:54:24;;;;;;;5.88;1.17;;;;;;;;;;5012573;28;20052;-86
2022/08/12 06:56:51;;;;;;;3.40;1.33;;;;;;;;;;5004359;28;20534;-86
2022/08/12 06:59:20;;;;;;;7.07;1.48;;;;;;;;;;5006272;28;20080;-87
2022/08/12 07:01:45;;;;;;;5.00;1.40;;;;;;;;;;4995574;28;20041;-85
2022/08/12 07:04:13;;;;;;;6.38;1.20;;;;;;;;;;4986434;28;20351;-85
2022/08/12 07:06:39;;;;;;;8.45;1.70;;;;;;;;;;4990652;28;20099;-86
2022/08/12 07:09:05;;;;;;;5.63;1.30;;;;;;;;;;4991992;28;20045;-86
2022/08/12 07:11:32;;;;;;;3.63;1.27;;;;;;;;;;5006768;28;20428;-86
2022/08/12 07:14:00;;;;;;;2.87;1.17;;;;;;;;;;4981851;28;20080;-82
2022/08/12 07:19:16;;;;;;;5.03;1.00;;;;;;;;;;5010886;28;20099;-87
2022/08/12 07:21:41;;;;;;;3.97;1.02;;;;;;;;;;4997558;28;20067;-85
2022/08/12 07:24:07;;;;;;;2.65;0.80;;;;;;;;;;4983501;28;20049;-86
2022/08/12 07:26:38;;;;;;;3.08;0.90;;;;;;;;;;5008454;28;20092;-87
2022/08/12 07:29:05;;;;;;;4.80;1.25;;;;;;;;;;4994180;28;20784;-88
2022/08/12 07:31:31;;;;;;;4.75;1.05;;;;;;;;;;5008768;28;20116;-86
2022/08/12 07:33:57;;;;;;;2.40;1.02;;;;;;;;;;4983559;28;20109;-85
2022/08/12 07:36:24;;;;;;;3.55;1.27;;;;;;;;;;4990305;28;20030;-87
2022/08/12 07:38:50;;;;;;;3.83;0.98;;;;;;;;;;5008003;28;20444;-86
2022/08/12 07:41:30;;;;;;;2.35;1.00;;;;;;;;;;4981903;28;20774;-86
2022/08/12 07:44:02;;;;;;;6.53;1.23;;;;;;;;;;5019982;28;20038;-87
2022/08/12 07:46:31;;;;;;;2.72;1.00;;;;;;;;;;4991504;28;20045;-85
2022/08/12 07:49:01;;;;;;;3.33;1.10;;;;;;;;;;5151949;22;20131;-93
2022/08/12 07:51:30;;;;;;;3.92;0.90;;;;;;;;;;5029189;28;20541;-91
2022/08/12 07:53:57;;;;;;;3.53;1.00;;;;;;;;;;5029351;28;20523;-90
2022/08/12 07:56:22;;;;;;;;;;;;;;;;;;5015615;28;20056;-90
2022/08/12 07:58:48;;;;;;;9.80;1.58;;;;;;;;;;5013194;28;19917;-89
2022/08/12 08:01:21;;;;;;;2.90;0.90;;;;;;;;;;5023157;28;20511;-92
2022/08/12 08:06:41;;;;;;;4.78;1.00;;;;;;;;;;5029703;28;20403;-92
2022/08/12 08:09:08;;;;;;;3.97;0.68;;;;;;;;;;5021390;28;20038;-92
2022/08/12 08:14:27;;;;;;;4.07;0.85;;;;;;;;;;5000185;28;20137;-92
2022/08/12 08:17:02;;;;;;;11.20;1.50;;;;;;;;;;4971535;28;20971;-92
2022/08/12 08:19:40;;;;;;;4.82;0.68;;;;;;;;;;5003146;28;20054;-93
2022/08/12 08:22:09;;;;;;;1.80;0.52;;;;;;;;;;4978973;28;20049;-92
2022/08/12 08:24:34;;;;;;;1.85;0.55;;;;;;;;;;5025995;28;20431;-91
2022/08/12 08:27:03;;;;;;;3.50;0.88;;;;;;;;;;4983881;28;20099;-92
2022/08/12 08:29:49;;;;;;;3.05;0.60;;;;;;;;;;5006815;28;20045;-95
2022/08/12 08:32:17;;;;;;;3.53;0.50;;;;;;;;;;5008017;28;20033;-94
2022/08/12 08:34:46;;;;;;;1.58;0.50;;;;;;;;;;5009793;28;20391;-95
2022/08/12 08:37:14;;;;;;;4.55;0.80;;;;;;;;;;4987931;28;20464;-92
2022/08/12 08:42:48;;;;;;;3.15;0.70;;;;;;;;;;5012004;28;20084;-93
2022/08/12 08:45:28;;;;;;;1.60;0.45;;;;;;;;;;4991365;28;20041;-94
2022/08/12 08:47:53;;;;;;;2.28;0.50;;;;;;;;;;4999695;28;20552;-89
2022/08/12 08:50:39;;;;;;;2.58;0.40;;;;;;;;;;4988487;28;20123;-91
2022/08/12 08:53:07;;;;;;;2.22;0.50;;;;;;;;;;5016709;28;20041;-92
2022/08/12 08:55:34;;;;;;;3.92;0.75;;;;;;;;;;5025023;28;20045;-94
2022/08/12 08:57:59;;;;;;;2.88;0.40;;;;;;;;;;5008336;28;20515;-94
2022/08/12 09:00:25;;;;;;;2.83;0.40;;;;;;;;;;4992046;28;20041;-93
2022/08/12 09:02:50;;;;;;;1.50;0.40;;;;;;;;;;5000305;28;20030;-92
2022/08/12 09:05:16;;;;;;;1.47;0.40;;;;;;;;;;5007788;28;20552;-93
2022/08/12 09:07:48;;;;;;;1.27;0.37;;;;;;;;;;5007602;28;20033;-93
2022/08/12 09:10:18;;;;;;;1.85;0.40;;;;;;;;;;5029336;28;20033;-92
2022/08/12 09:15:29;;;;;;;2.40;0.50;;;;;;;;;;5063578;28;20102;-89
2022/08/12 09:17:55;;;;;;;;;;;;;;;;;;5030021;28;20041;-93
2022/08/12 09:20:22;;;;;;;2.58;0.30;;;;;;;;;;5030586;28;20363;-92
2022/08/12 09:22:48;;;;;;;1.85;0.50;;;;;;;;;;5033800;28;20056;-95
2022/08/12 09:25:15;;;;;;;1.00;0.40;;;;;;;;;;5029131;28;20071;-94
2022/08/12 09:27:41;;;;;;;1.13;0.40;;;;;;;;;;5049661;28;20037;-94
2022/08/12 09:30:13;;;;;;;2.38;0.73;;;;;;;;;;5023522;28;20063;-93
2022/08/12 09:32:40;;;;;;;2.45;0.50;;;;;;;;;;5045960;28;20033;-94
2022/08/12 09:35:05;;;;;;;0.98;0.30;;;;;;;;;;5047654;28;20507;-93
2022/08/12 09:37:31;;;;;;;1.85;0.40;;;;;;;;;;5032057;28;20036;-93
2022/08/12 09:39:59;;;;;;;1.17;0.40;;;;;;;;;;5032422;28;20051;-93
2022/08/12 09:45:21;;;;;;;1.80;0.70;;;;;;;;;;5049189;28;20094;-92
2022/08/12 09:47:47;;;;;;;1.33;0.40;;;;;;;;;;5048104;28;20454;-93
2022/08/12 09:50:15;;;;;;;0.95;0.32;;;;;;;;;;5029071;28;20379;-92
2022/08/12 09:52:41;;;;;;;1.80;0.30;;;;;;;;;;5045766;28;20029;-93
2022/08/12 09:55:10;;;;;;;1.10;0.40;;;;;;;;;;5029415;28;22121;-93
2022/08/12 09:57:36;;;;;;;2.33;0.70;;;;;;;;;;5046762;28;20734;-92
2022/08/12 10:00:08;;;;;;;2.20;0.55;;;;;;;;;;5046768;28;20059;-88
2022/08/12 10:02:37;;;;;;;1.02;0.40;;;;;;;;;;5019600;28;20041;-88
2022/08/12 10:05:08;;;;;;;2.92;0.38;;;;;;;;;;5030940;28;20055;-92
2022/08/12 10:07:34;;;;;;;1.10;0.47;;;;;;;;;;5030338;28;20578;-90
2022/08/12 10:09:59;;;;;;;2.63;0.40;;;;;;;;;;5030324;28;20115;-93
2022/08/12 10:15:13;;;;;;;2.83;0.50;;;;;;;;;;5049788;28;20039;-94
2022/08/12 10:17:39;;;;;;;4.32;0.50;;;;;;;;;;5031157;28;20043;-89
2022/08/12 10:20:06;;;;;;;0.80;0.37;;;;;;;;;;5049690;28;20037;-79
2022/08/12 10:22:33;;;;;;;2.20;0.40;;;;;;;;;;5032060;28;20033;-81
2022/08/12 10:30:26;;;;;;;1.27;0.47;;;;;;;;;;5046740;28;20124;-87
2022/08/12 10:32:58;;;;;;;2.30;0.50;;;;;;;;;;5019649;28;20465;-91
2022/08/12 10:35:30;;;;;;;2.58;0.50;;;;;;;;;;5045277;28;20056;-89
2022/08/12 10:38:00;;;;;;;1.48;0.52;;;;;;;;;;5016834;28;20037;-88
2022/08/12 10:40:30;;;;;;;3.00;0.50;;;;;;;;;;5019611;28;20044;-87
2022/08/12 10:45:50;;;;;;;2.45;0.50;;;;;;;;;;5036321;28;20038;-87
2022/08/12 10:48:19;;;;;;;1.38;0.50;;;;;;;;;;5012694;28;20044;-88
2022/08/12 10:50:45;;;;;;;3.45;0.50;;;;;;;;;;5029128;28;20079;-89
2022/08/12 10:53:11;;;;;;;1.43;0.30;;;;;;;;;;5048185;28;20033;-86
2022/08/12 10:55:36;;;;;;;0.65;0.30;;;;;;;;;;5029068;28;20104;-88
2022/08/12 10:58:02;;;;;;;1.33;0.45;;;;;;;;;;5001546;28;20057;-88
2022/08/12 11:00:33;;;;;;;2.72;0.50;;;;;;;;;;5029193;28;20032;-86
2022/08/12 11:02:58;;;;;;;1.77;0.50;;;;;;;;;;5032033;28;20060;-85
2022/08/12 11:05:24;;;;;;;1.95;0.52;;;;;;;;;;5030954;28;20415;-86
2022/08/12 11:07:50;;;;;;;1.63;0.40;;;;;;;;;;5045528;28;20037;-86
2022/08/12 11:10:16;;;;;;;1.67;0.40;;;;;;;;;;5035953;28;20056;-87
2022/08/12 11:12:46;;;;;;;1.00;0.43;;;;;;;;;;5047656;28;20032;-90
2022/08/12 11:15:16;;;;;;;2.50;0.68;;;;;;;;;;5033054;28;20609;-90
2022/08/12 11:17:41;;;;;;;0.98;0.40;;;;;;;;;;5037244;28;20040;-89
2022/08/12 11:20:07;;;;;;;0.90;0.40;;;;;;;;;;5032363;28;22204;-87
2022/08/12 11:22:33;;;;;;;2.80;0.57;;;;;;;;;;5032160;28;20036;-86
2022/08/12 11:24:59;;;;;;;2.07;0.50;;;;;;;;;;5031285;28;20033;-87
2022/08/12 11:27:24;;;;;;;2.80;0.50;;;;;;;;;;5018309;28;20063;-86
2022/08/12 11:29:50;;;;;;;4.90;0.60;;;;;;;;;;5042788;28;20110;-91
2022/08/12 11:32:15;;;;;;;1.90;0.60;;;;;;;;;;5032822;28;20043;-86
2022/08/12 11:34:42;;;;;;;2.20;0.63;;;;;;;;;;5019371;28;20040;-88
2022/08/12 11:37:10;;;;;;;1.90;0.50;;;;;;;;;;5028357;28;20116;-88
2022/08/12 11:39:36;;;;;;;1.50;0.60;;;;;;;;;;5027571;28;20028;-86
2022/08/12 11:42:40;;;;;;;5.47;0.70;;;;;;;;;;5019893;28;20040;-86
2022/08/12 11:44:56;;;;;;;3.22;0.60;;;;;;;;;;5042951;28;20040;-88
2022/08/12 11:47:22;;;;;;;4.13;0.68;;;;;;;;;;5039458;28;20399;-88
2022/08/12 11:49:47;;;;;;;6.85;1.00;;;;;;;;;;5031910;28;20111;-86
2022/08/12 11:52:13;;;;;;;3.42;0.70;;;;;;;;;;5014525;28;20041;-84
2022/08/12 11:54:38;;;;;;;2.25;0.55;;;;;;;;;;5030438;28;20032;-87
2022/08/12 11:57:04;;;;;;;4.20;0.70;;;;;;;;;;5031952;28;20044;-87
2022/08/12 11:59:32;;;;;;;1.35;0.50;;;;;;;;;;5048534;28;20390;-85
2022/08/12 12:01:57;;;;;;;1.40;0.50;;;;;;;;;;5047111;28;20063;-86
2022/08/12 12:04:23;;;;;;;2.20;0.63;;;;;;;;;;5031185;28;20060;-88
2022/08/12 12:06:48;;;;;;;1.85;0.50;;;;;;;;;;5024944;28;20040;-86
2022/08/12 12:09:13;;;;;;;2.00;0.68;;;;;;;;;;5032894;28;20037;-86
2022/08/12 12:11:39;;;;;;;1.55;0.70;;;;;;;;;;5031695;28;20123;-85
2022/08/12 12:14:04;;;;;;;4.40;0.88;;;;;;;;;;5031441;28;20627;-85
2022/08/12 12:16:30;;;;;;;3.80;0.60;;;;;;;;;;5030652;28;20086;-84
2022/08/12 12:18:56;;;;;;;2.17;0.57;;;;;;;;;;5031369;28;20039;-85
2022/08/12 12:21:22;;;;;;;2.70;0.60;;;;;;;;;;5029734;28;20655;-86
2022/08/12 12:23:47;;;;;;;1.90;0.57;;;;;;;;;;5031114;28;20037;-86
2022/08/12 12:26:13;;;;;;;0.82;0.40;;;;;;;;;;5022444;28;20499;-86
2022/08/12 12:28:41;;;;;;;1.80;0.60;;;;;;;;;;5031231;28;20037;-86
2022/08/12 12:31:07;;;;;;;3.38;0.80;;;;;;;;;;5043124;28;20036;-85
2022/08/12 12:33:33;;;;;;;2.13;0.65;;;;;;;;;;5031273;28;20045;-85
2022/08/12 12:35:59;;;;;;;3.28;0.80;;;;;;;;;;5047612;28;20499;-84
2022/08/12 12:38:24;;;;;;;4.28;0.98;;;;;;;;;;5049695;28;20067;-85
2022/08/12 12:40:51;;;;;;;4.03;0.85;;;;;;;;;;5030560;28;20039;-87
2022/08/12 12:43:17;;;;;;;3.15;0.60;;;;;;;;;;5031866;28;20032;-86
2022/08/12 12:45:44;;;;;;;2.13;0.60;;;;;;;;;;5030784;28;20129;-84
2022/08/12 12:48:12;;;;;;;2.45;0.73;;;;;;;;;;5035719;28;20088;-85
2022/08/12 12:50:40;;;;;;;3.00;1.00;;;;;;;;;;5046639;28;20040;-86
2022/08/12 12:53:07;;;;;;;5.30;1.02;;;;;;;;;;5021731;28;20127;-86
2022/08/12 12:55:36;;;;;;;1.73;0.70;;;;;;;;;;5028091;28;20041;-85
2022/08/12 12:58:29;;;;;;;4.45;0.65;;;;;;;;;;5047951;28;20037;-86
2022/08/12 13:01:00;;;;;;;1.85;0.55;;;;;;;;;;5034401;28;20384;-85
2022/08/12 13:03:26;;;;;;;1.83;0.70;;;;;;;;;;5032136;28;20052;-86
2022/08/12 13:05:59;;;;;;;1.67;0.50;;;;;;;;;;5030682;28;20029;-88
2022/08/12 13:08:33;;;;;;;3.88;0.60;;;;;;;;;;5030834;28;20044;-87
2022/08/12 13:11:03;;;;;;;28.80;2.58;;;;;;;;;;5062085;28;20451;-86
2022/08/12 13:13:33;;;;;;;2.35;0.77;;;;;;;;;;5037920;28;20040;-86
2022/08/12 13:16:00;;;;;;;1.80;0.60;;;;;;;;;;5039848;28;20479;-86
2022/08/12 13:18:35;;;;;;;1.05;0.50;;;;;;;;;;5016434;28;20036;-85
2022/08/12 13:21:05;;;;;;;2.78;0.70;;;;;;;;;;5029115;28;20036;-86
2022/08/12 13:23:33;;;;;;;2.08;0.80;;;;;;;;;;5029853;28;20040;-87
2022/08/12 13:26:02;;;;;;;4.10;0.75;;;;;;;;;;5020046;28;20040;-85
2022/08/12 13:28:29;;;;;;;1.80;0.60;;;;;;;;;;5029018;28;20040;-87
2022/08/12 13:30:58;;;;;;;4.22;0.90;;;;;;;;;;5020461;28;20092;-89
2022/08/12 13:33:28;;;;;;;2.28;0.60;;;;;;;;;;5024958;28;20036;-86
2022/08/12 13:36:03;;;;;;;3.30;0.82;;;;;;;;;;5029700;28;20415;-89
2022/08/12 13:38:49;;;;;;;1.65;0.40;;;;;;;;;;5024270;28;20036;-85
2022/08/12 13:41:34;;;;;;;7.88;0.60;;;;;;;;;;5041162;28;20530;-89
2022/08/12 13:44:14;;;;;;;3.55;0.70;;;;;;;;;;5026997;28;20442;-88
2022/08/12 13:46:40;;;;;;;2.65;0.68;;;;;;;;;;5009607;28;20048;-85
2022/08/12 13:50:09;;;;;;;3.92;1.00;;;;;;;;;;5027409;28;20100;-93
2022/08/12 13:52:35;;;;;;;1.63;0.70;;;;;;;;;;4971957;28;20046;-87
2022/08/12 13:55:03;;;;;;;1.73;0.60;;;;;;;;;;4951091;28;20081;-90
2022/08/12 13:57:51;;;;;;;1.70;0.60;;;;;;;;;;4963310;28;20038;-90
2022/08/12 14:00:31;;;;;;;2.08;0.75;;;;;;;;;;4940439;28;20130;-91
2022/08/12 14:02:57;;;;;;;3.45;0.65;;;;;;;;;;4955292;28;20356;-85
2022/08/12 14:05:22;;;;;;;1.98;0.65;;;;;;;;;;4949173;28;20042;-91
2022/08/12 14:07:59;;;;;;;2.30;0.80;;;;;;;;;;4967014;28;20113;-88
2022/08/12 14:10:37;;;;;;;11.75;2.03;;;;;;;;;;4965401;28;20776;-86
2022/08/12 14:13:25;;;;;;;3.47;0.80;;;;;;;;;;4970540;28;20153;-86
2022/08/12 14:15:56;;;;;;;2.70;0.77;;;;;;;;;;4968002;28;20039;-88
2022/08/12 14:18:25;;;;;;;3.05;0.75;;;;;;;;;;4971283;28;20042;-88
2022/08/12 14:21:00;;;;;;;3.90;1.00;;;;;;;;;;4955158;28;20057;-89
2022/08/12 14:23:27;;;;;;;2.22;0.80;;;;;;;;;;4954079;28;20038;-90
2022/08/12 14:25:54;;;;;;;1.75;0.63;;;;;;;;;;4969894;28;20038;-87
2022/08/12 14:28:22;;;;;;;3.10;0.63;;;;;;;;;;5031192;28;20395;-88
2022/08/12 14:30:52;;;;;;;4.07;0.90;;;;;;;;;;5033832;28;20033;-88
2022/08/12 14:33:47;;;;;;;2.20;0.85;;;;;;;;;;5050691;28;20032;-90
2022/08/12 14:36:19;;;;;;;2.08;0.82;;;;;;;;;;5048366;28;20052;-90
2022/08/12 14:38:45;;;;;;;3.28;0.80;;;;;;;;;;5049999;28;20036;-90
2022/08/12 14:41:13;;;;;;;2.08;0.73;;;;;;;;;;5032772;28;20462;-89
2022/08/12 14:43:39;;;;;;;2.35;0.70;;;;;;;;;;5049626;28;20040;-88
2022/08/12 14:46:15;;;;;;;4.18;1.30;;;;;;;;;;5032324;28;20045;-89
2022/08/12 14:48:45;;;;;;;3.17;1.13;;;;;;;;;;5050643;28;20446;-88
2022/08/12 14:51:15;;;;;;;1.88;0.80;;;;;;;;;;5032884;28;20044;-89
2022/08/12 14:53:42;;;;;;;2.88;0.90;;;;;;;;;;5032559;28;20734;-87
2022/08/12 14:56:08;;;;;;;1.60;0.70;;;;;;;;;;5031723;28;20033;-85
2022/08/12 14:58:34;;;;;;;3.50;0.80;;;;;;;;;;5033112;28;20046;-87
2022/08/12 15:03:43;;;;;;;2.58;0.80;;;;;;;;;;5051993;28;20082;-86
2022/08/12 15:06:36;;;;;;;2.22;0.75;;;;;;;;;;5032836;28;20036;-86
2022/08/12 15:09:00;;;;;;;1.67;0.70;;;;;;;;;;5052547;28;20904;-90
2022/08/12 15:11:26;;;;;;;3.72;0.85;;;;;;;;;;5033009;28;20151;-89
2022/08/12 15:13:58;;;;;;;1.80;0.65;;;;;;;;;;5048426;28;20078;-88
2022/08/12 15:16:25;;;;;;;2.28;0.80;;;;;;;;;;5027366;28;20052;-85
2022/08/12 15:18:51;;;;;;;2.90;0.70;;;;;;;;;;5029502;28;20033;-85
2022/08/12 15:21:16;;;;;;;4.45;0.90;;;;;;;;;;5031743;28;20040;-85
2022/08/12 15:23:42;;;;;;;2.38;0.85;;;;;;;;;;5011977;28;20564;-85
2022/08/12 15:26:11;;;;;;;1.52;0.70;;;;;;;;;;5031605;28;20059;-85
2022/08/12 15:28:40;;;;;;;2.67;0.70;;;;;;;;;;5032820;28;20566;-87
2022/08/12 15:31:06;;;;;;;1.27;0.60;;;;;;;;;;5030746;28;20055;-87
2022/08/12 15:33:35;;;;;;;1.92;0.73;;;;;;;;;;5018699;28;20471;-84
2022/08/12 15:36:03;;;;;;;4.13;0.73;;;;;;;;;;5040675;28;20043;-84
2022/08/12 15:38:31;;;;;;;;;;;;;;;;;;5044944;28;20519;-85
2022/08/12 15:40:58;;;;;;;2.72;0.93;;;;;;;;;;5043309;28;19912;-86
2022/08/12 15:43:25;;;;;;;2.78;0.88;;;;;;;;;;5007877;28;20033;-84
2022/08/12 15:45:54;;;;;;;2.30;0.88;;;;;;;;;;5030732;28;20127;-85
2022/08/12 15:48:20;;;;;;;2.53;0.90;;;;;;;;;;5032972;28;20028;-84
2022/08/12 15:50:45;;;;;;;2.13;0.98;;;;;;;;;;5049072;28;20427;-85
2022/08/12 15:53:14;;;;;;;3.80;0.90;;;;;;;;;;5030816;28;20036;-84
2022/08/12 15:55:48;;;;;;;1.85;0.80;;;;;;;;;;5030063;28;20039;-87
2022/08/12 15:58:13;;;;;;;5.60;0.73;;;;;;;;;;5012372;28;20045;-85
2022/08/12 16:00:39;;;;;;;3.75;0.90;;;;;;;;;;5032156;28;20035;-85
2022/08/12 16:03:08;;;;;;;3.67;1.10;;;;;;;;;;5031449;28;20052;-84
2022/08/12 16:05:39;;;;;;;2.13;0.90;;;;;;;;;;5031557;28;20405;-85
2022/08/12 16:08:06;;;;;;;2.47;1.05;;;;;;;;;;5029946;28;20461;-84
2022/08/12 16:10:31;;;;;;;3.42;1.10;;;;;;;;;;5031610;28;20037;-86
2022/08/12 16:13:04;;;;;;;3.92;1.15;;;;;;;;;;5048001;28;20028;-86
2022/08/12 16:15:33;;;;;;;2.38;1.08;;;;;;;;;;5030907;28;20495;-83
2022/08/12 16:18:00;;;;;;;1.73;0.80;;;;;;;;;;5031065;28;20475;-85
2022/08/12 16:20:26;;;;;;;2.60;0.88;;;;;;;;;;5032275;28;20039;-84
2022/08/12 16:23:02;;;;;;;2.72;1.00;;;;;;;;;;5039062;28;20032;-86
2022/08/12 16:25:29;;;;;;;2.40;1.05;;;;;;;;;;5047652;28;20042;-87
2022/08/12 16:27:57;;;;;;;2.42;0.90;;;;;;;;;;5032120;28;20097;-89
2022/08/12 16:30:23;;;;;;;;;;;;;;;;;;5032655;28;20043;-86
2022/08/12 16:32:50;;;;;;;6.72;1.83;;;;;;;;;;5048272;28;19963;-89
2022/08/12 16:35:16;;;;;;;2.45;1.00;;;;;;;;;;5048168;28;20043;-87
2022/08/12 16:37:43;;;;;;;2.85;0.90;;;;;;;;;;5030818;28;20391;-88
2022/08/12 16:40:09;;;;;;;2.67;1.10;;;;;;;;;;5032495;28;20147;-88
2022/08/12 16:42:37;;;;;;;2.90;1.00;;;;;;;;;;5029851;28;20119;-89
2022/08/12 16:45:07;;;;;;;1.70;0.93;;;;;;;;;;5045633;28;20041;-91
2022/08/12 16:47:32;;;;;;;1.80;0.90;;;;;;;;;;5053823;28;20059;-87
2022/08/12 16:49:58;;;;;;;3.58;1.02;;;;;;;;;;5031924;28;20093;-89
2022/08/12 16:52:24;;;;;;;3.05;1.00;;;;;;;;;;5029777;28;20033;-88
2022/08/12 16:54:50;;;;;;;3.20;1.00;;;;;;;;;;5047063;28;20496;-89
2022/08/12 16:57:15;;;;;;;4.03;1.10;;;;;;;;;;5030743;28;20494;-88